sensor_id;sensor_type;location;lat;lon;timestamp;P1;durP1;ratioP1;P2;durP2;ratioP2
41219;SDS011;26951;47.338;9.196;2022-12-05T00:00:38;13.70;;;8.32;;
41219;SDS011;26951;47.338;9.196;2022-12-05T00:03:22;14.95;;;7.88;;
41219;SDS011;26951;47.338;9.196;2022-12-05T00:06:07;10.15;;;6.85;;
41219;SDS011;26951;47.338;9.196;2022-12-05T00:08:51;12.40;;;7.70;;
41219;SDS011;26951;47.338;9.196;2022-12-05T00:11:36;15.02;;;8.30;;
41219;SDS011;26951;47.338;9.196;2022-12-05T00:14:23;11.30;;;7.20;;
41219;SDS011;26951;47.338;9.196;2022-12-05T00:17:07;10.50;;;6.35;;
41219;SDS011;26951;47.338;9.196;2022-12-05T00:19:52;10.82;;;7.15;;
41219;SDS011;26951;47.338;9.196;2022-12-05T00:22:36;10.55;;;6.82;;
41219;SDS011;26951;47.338;9.196;2022-12-05T00:25:21;15.45;;;8.93;;
41219;SDS011;26951;47.338;9.196;2022-12-05T00:28:05;14.88;;;8.25;;
41219;SDS011;26951;47.338;9.196;2022-12-05T00:30:50;12.30;;;7.50;;
41219;SDS011;26951;47.338;9.196;2022-12-05T00:33:34;14.02;;;8.40;;
41219;SDS011;26951;47.338;9.196;2022-12-05T00:36:23;12.20;;;7.75;;
41219;SDS011;26951;47.338;9.196;2022-12-05T00:39:09;14.48;;;7.97;;
41219;SDS011;26951;47.338;9.196;2022-12-05T00:41:57;15.07;;;9.30;;
41219;SDS011;26951;47.338;9.196;2022-12-05T00:44:41;14.63;;;8.30;;
41219;SDS011;26951;47.338;9.196;2022-12-05T00:47:25;12.43;;;7.53;;
41219;SDS011;26951;47.338;9.196;2022-12-05T00:50:09;14.43;;;8.50;;
41219;SDS011;26951;47.338;9.196;2022-12-05T00:52:53;13.05;;;7.50;;
41219;SDS011;26951;47.338;9.196;2022-12-05T00:55:38;11.68;;;6.93;;
41219;SDS011;26951;47.338;9.196;2022-12-05T00:58:22;12.77;;;7.75;;
41219;SDS011;26951;47.338;9.196;2022-12-05T01:01:14;12.75;;;7.65;;
41219;SDS011;26951;47.338;9.196;2022-12-05T01:04:13;12.27;;;8.00;;
41219;SDS011;26951;47.338;9.196;2022-12-05T01:07:00;11.70;;;7.32;;
41219;SDS011;26951;47.338;9.196;2022-12-05T01:09:44;13.20;;;7.68;;
41219;SDS011;26951;47.338;9.196;2022-12-05T01:12:28;13.65;;;8.05;;
41219;SDS011;26951;47.338;9.196;2022-12-05T01:15:12;11.75;;;7.00;;
41219;SDS011;26951;47.338;9.196;2022-12-05T01:17:56;12.48;;;7.07;;
41219;SDS011;26951;47.338;9.196;2022-12-05T01:20:41;12.70;;;7.40;;
41219;SDS011;26951;47.338;9.196;2022-12-05T01:23:25;11.60;;;7.13;;
41219;SDS011;26951;47.338;9.196;2022-12-05T01:26:11;11.55;;;7.40;;
41219;SDS011;26951;47.338;9.196;2022-12-05T01:28:56;12.82;;;8.05;;
41219;SDS011;26951;47.338;9.196;2022-12-05T01:31:41;11.98;;;6.97;;
41219;SDS011;26951;47.338;9.196;2022-12-05T01:34:25;13.27;;;7.28;;
41219;SDS011;26951;47.338;9.196;2022-12-05T01:37:09;10.85;;;6.88;;
41219;SDS011;26951;47.338;9.196;2022-12-05T01:39:54;10.02;;;7.15;;
41219;SDS011;26951;47.338;9.196;2022-12-05T01:42:38;12.88;;;7.30;;
41219;SDS011;26951;47.338;9.196;2022-12-05T01:45:30;10.05;;;6.60;;
41219;SDS011;26951;47.338;9.196;2022-12-05T01:48:18;12.15;;;7.78;;
41219;SDS011;26951;47.338;9.196;2022-12-05T01:51:06;9.90;;;6.95;;
41219;SDS011;26951;47.338;9.196;2022-12-05T01:53:50;11.82;;;7.82;;
41219;SDS011;26951;47.338;9.196;2022-12-05T01:56:35;10.82;;;6.80;;
41219;SDS011;26951;47.338;9.196;2022-12-05T01:59:19;10.65;;;6.72;;
41219;SDS011;26951;47.338;9.196;2022-12-05T02:02:05;11.85;;;7.20;;
41219;SDS011;26951;47.338;9.196;2022-12-05T02:04:57;11.30;;;7.20;;
41219;SDS011;26951;47.338;9.196;2022-12-05T02:08:02;9.90;;;6.53;;
41219;SDS011;26951;47.338;9.196;2022-12-05T02:10:51;13.55;;;7.70;;
41219;SDS011;26951;47.338;9.196;2022-12-05T02:19:36;11.57;;;6.93;;
41219;SDS011;26951;47.338;9.196;2022-12-05T02:34:52;11.20;;;6.22;;
41219;SDS011;26951;47.338;9.196;2022-12-05T02:46:34;8.80;;;5.93;;
41219;SDS011;26951;47.338;9.196;2022-12-05T02:49:22;8.38;;;5.55;;
41219;SDS011;26951;47.338;9.196;2022-12-05T02:52:12;9.93;;;5.93;;
41219;SDS011;26951;47.338;9.196;2022-12-05T02:54:58;9.90;;;6.43;;
41219;SDS011;26951;47.338;9.196;2022-12-05T02:57:44;8.95;;;6.07;;
41219;SDS011;26951;47.338;9.196;2022-12-05T03:00:33;8.93;;;5.38;;
41219;SDS011;26951;47.338;9.196;2022-12-05T03:03:21;9.32;;;5.93;;
41219;SDS011;26951;47.338;9.196;2022-12-05T03:06:08;6.40;;;4.63;;
41219;SDS011;26951;47.338;9.196;2022-12-05T03:09:00;7.72;;;5.55;;
41219;SDS011;26951;47.338;9.196;2022-12-05T03:11:55;8.02;;;4.97;;
41219;SDS011;26951;47.338;9.196;2022-12-05T03:15:16;8.93;;;5.30;;
41219;SDS011;26951;47.338;9.196;2022-12-05T03:18:07;6.93;;;4.80;;
41219;SDS011;26951;47.338;9.196;2022-12-05T03:24:17;10.40;;;5.28;;
41219;SDS011;26951;47.338;9.196;2022-12-05T03:27:21;6.53;;;4.30;;
41219;SDS011;26951;47.338;9.196;2022-12-05T03:30:26;6.70;;;4.30;;
41219;SDS011;26951;47.338;9.196;2022-12-05T03:33:12;6.07;;;4.63;;
41219;SDS011;26951;47.338;9.196;2022-12-05T03:36:01;5.78;;;3.60;;
41219;SDS011;26951;47.338;9.196;2022-12-05T03:38:53;5.53;;;3.70;;
41219;SDS011;26951;47.338;9.196;2022-12-05T03:41:48;6.63;;;4.57;;
41219;SDS011;26951;47.338;9.196;2022-12-05T03:44:47;6.85;;;4.68;;
41219;SDS011;26951;47.338;9.196;2022-12-05T03:50:53;5.60;;;4.13;;
41219;SDS011;26951;47.338;9.196;2022-12-05T03:53:41;5.40;;;3.65;;
41219;SDS011;26951;47.338;9.196;2022-12-05T03:56:33;5.88;;;4.00;;
41219;SDS011;26951;47.338;9.196;2022-12-05T03:59:34;6.45;;;3.90;;
41219;SDS011;26951;47.338;9.196;2022-12-05T04:08:35;5.03;;;3.67;;
41219;SDS011;26951;47.338;9.196;2022-12-05T04:11:26;4.43;;;2.92;;
41219;SDS011;26951;47.338;9.196;2022-12-05T04:14:14;4.75;;;3.50;;
41219;SDS011;26951;47.338;9.196;2022-12-05T04:17:06;4.45;;;3.00;;
41219;SDS011;26951;47.338;9.196;2022-12-05T04:23:13;3.25;;;2.65;;
41219;SDS011;26951;47.338;9.196;2022-12-05T04:26:20;4.25;;;2.58;;
41219;SDS011;26951;47.338;9.196;2022-12-05T04:29:18;4.60;;;2.78;;
41219;SDS011;26951;47.338;9.196;2022-12-05T04:32:10;4.90;;;2.95;;
41219;SDS011;26951;47.338;9.196;2022-12-05T04:34:57;3.85;;;2.17;;
41219;SDS011;26951;47.338;9.196;2022-12-05T04:37:48;3.13;;;2.40;;
41219;SDS011;26951;47.338;9.196;2022-12-05T04:40:39;4.18;;;2.63;;
41219;SDS011;26951;47.338;9.196;2022-12-05T04:43:43;3.13;;;2.42;;
41219;SDS011;26951;47.338;9.196;2022-12-05T04:46:30;3.40;;;1.92;;
41219;SDS011;26951;47.338;9.196;2022-12-05T04:49:15;2.00;;;1.30;;
41219;SDS011;26951;47.338;9.196;2022-12-05T04:52:05;2.60;;;1.63;;
41219;SDS011;26951;47.338;9.196;2022-12-05T04:54:53;2.88;;;1.60;;
41219;SDS011;26951;47.338;9.196;2022-12-05T04:57:49;1.67;;;1.35;;
41219;SDS011;26951;47.338;9.196;2022-12-05T05:01:06;2.72;;;1.85;;
41219;SDS011;26951;47.338;9.196;2022-12-05T05:04:18;2.60;;;1.75;;
41219;SDS011;26951;47.338;9.196;2022-12-05T05:07:15;2.65;;;1.80;;
41219;SDS011;26951;47.338;9.196;2022-12-05T05:10:00;2.00;;;1.70;;
41219;SDS011;26951;47.338;9.196;2022-12-05T05:12:44;2.47;;;1.50;;
41219;SDS011;26951;47.338;9.196;2022-12-05T05:15:28;1.60;;;1.33;;
41219;SDS011;26951;47.338;9.196;2022-12-05T05:18:12;2.05;;;1.30;;
41219;SDS011;26951;47.338;9.196;2022-12-05T05:20:57;2.03;;;1.40;;
41219;SDS011;26951;47.338;9.196;2022-12-05T05:23:41;1.70;;;1.30;;
41219;SDS011;26951;47.338;9.196;2022-12-05T05:26:25;1.77;;;1.48;;
41219;SDS011;26951;47.338;9.196;2022-12-05T05:29:11;1.45;;;1.30;;
41219;SDS011;26951;47.338;9.196;2022-12-05T05:31:56;1.55;;;1.42;;
41219;SDS011;26951;47.338;9.196;2022-12-05T05:34:40;1.67;;;1.35;;
41219;SDS011;26951;47.338;9.196;2022-12-05T05:37:24;2.38;;;1.85;;
41219;SDS011;26951;47.338;9.196;2022-12-05T05:40:09;2.05;;;1.60;;
41219;SDS011;26951;47.338;9.196;2022-12-05T05:42:54;1.67;;;1.30;;
41219;SDS011;26951;47.338;9.196;2022-12-05T05:45:39;2.08;;;1.60;;
41219;SDS011;26951;47.338;9.196;2022-12-05T05:48:23;3.05;;;2.35;;
41219;SDS011;26951;47.338;9.196;2022-12-05T05:51:08;2.15;;;1.70;;
41219;SDS011;26951;47.338;9.196;2022-12-05T05:53:53;2.05;;;1.80;;
41219;SDS011;26951;47.338;9.196;2022-12-05T05:56:39;2.28;;;2.08;;
41219;SDS011;26951;47.338;9.196;2022-12-05T05:59:23;3.63;;;3.10;;
41219;SDS011;26951;47.338;9.196;2022-12-05T06:02:08;3.50;;;2.28;;
41219;SDS011;26951;47.338;9.196;2022-12-05T06:04:52;2.10;;;1.83;;
41219;SDS011;26951;47.338;9.196;2022-12-05T06:07:36;2.55;;;2.35;;
41219;SDS011;26951;47.338;9.196;2022-12-05T06:10:20;2.17;;;1.77;;
41219;SDS011;26951;47.338;9.196;2022-12-05T06:13:04;3.03;;;2.20;;
41219;SDS011;26951;47.338;9.196;2022-12-05T06:15:49;2.58;;;2.13;;
41219;SDS011;26951;47.338;9.196;2022-12-05T06:18:33;2.38;;;1.60;;
41219;SDS011;26951;47.338;9.196;2022-12-05T06:21:18;1.60;;;1.48;;
41219;SDS011;26951;47.338;9.196;2022-12-05T06:24:03;1.60;;;1.50;;
41219;SDS011;26951;47.338;9.196;2022-12-05T06:26:47;2.10;;;1.52;;
41219;SDS011;26951;47.338;9.196;2022-12-05T06:29:31;1.70;;;1.60;;
41219;SDS011;26951;47.338;9.196;2022-12-05T06:32:17;2.15;;;1.70;;
41219;SDS011;26951;47.338;9.196;2022-12-05T06:35:01;1.67;;;1.55;;
41219;SDS011;26951;47.338;9.196;2022-12-05T06:37:51;3.05;;;1.63;;
41219;SDS011;26951;47.338;9.196;2022-12-05T06:40:42;2.22;;;1.70;;
41219;SDS011;26951;47.338;9.196;2022-12-05T06:43:27;2.10;;;1.52;;
41219;SDS011;26951;47.338;9.196;2022-12-05T06:46:12;1.90;;;1.60;;
41219;SDS011;26951;47.338;9.196;2022-12-05T06:48:57;2.15;;;1.80;;
41219;SDS011;26951;47.338;9.196;2022-12-05T06:51:42;2.55;;;1.80;;
41219;SDS011;26951;47.338;9.196;2022-12-05T06:54:27;2.47;;;1.95;;
41219;SDS011;26951;47.338;9.196;2022-12-05T06:57:12;1.58;;;1.35;;
41219;SDS011;26951;47.338;9.196;2022-12-05T06:59:56;2.38;;;1.67;;
41219;SDS011;26951;47.338;9.196;2022-12-05T07:05:47;1.75;;;1.42;;
41219;SDS011;26951;47.338;9.196;2022-12-05T07:08:31;2.00;;;1.30;;
41219;SDS011;26951;47.338;9.196;2022-12-05T07:11:16;1.92;;;1.60;;
41219;SDS011;26951;47.338;9.196;2022-12-05T07:14:00;1.75;;;1.38;;
41219;SDS011;26951;47.338;9.196;2022-12-05T07:16:45;2.17;;;1.50;;
41219;SDS011;26951;47.338;9.196;2022-12-05T07:19:29;3.10;;;1.45;;
41219;SDS011;26951;47.338;9.196;2022-12-05T07:22:13;1.52;;;1.02;;
41219;SDS011;26951;47.338;9.196;2022-12-05T07:24:57;1.92;;;1.58;;
41219;SDS011;26951;47.338;9.196;2022-12-05T07:27:42;1.63;;;1.30;;
41219;SDS011;26951;47.338;9.196;2022-12-05T07:30:26;2.60;;;1.95;;
41219;SDS011;26951;47.338;9.196;2022-12-05T07:33:10;2.55;;;2.22;;
41219;SDS011;26951;47.338;9.196;2022-12-05T07:36:01;3.38;;;2.28;;
41219;SDS011;26951;47.338;9.196;2022-12-05T07:38:52;2.25;;;1.70;;
41219;SDS011;26951;47.338;9.196;2022-12-05T07:41:38;2.72;;;1.60;;
41219;SDS011;26951;47.338;9.196;2022-12-05T07:44:22;2.00;;;1.60;;
41219;SDS011;26951;47.338;9.196;2022-12-05T07:47:06;1.85;;;1.52;;
41219;SDS011;26951;47.338;9.196;2022-12-05T07:49:50;2.15;;;1.45;;
41219;SDS011;26951;47.338;9.196;2022-12-05T07:52:34;2.22;;;1.75;;
41219;SDS011;26951;47.338;9.196;2022-12-05T07:55:18;2.40;;;1.80;;
41219;SDS011;26951;47.338;9.196;2022-12-05T07:58:02;2.08;;;1.65;;
41219;SDS011;26951;47.338;9.196;2022-12-05T08:00:47;3.35;;;2.22;;
41219;SDS011;26951;47.338;9.196;2022-12-05T08:03:30;2.58;;;2.05;;
41219;SDS011;26951;47.338;9.196;2022-12-05T08:06:16;2.63;;;2.03;;
41219;SDS011;26951;47.338;9.196;2022-12-05T08:09:01;2.70;;;2.10;;
41219;SDS011;26951;47.338;9.196;2022-12-05T08:11:45;2.22;;;1.90;;
41219;SDS011;26951;47.338;9.196;2022-12-05T08:14:29;1.73;;;1.58;;
41219;SDS011;26951;47.338;9.196;2022-12-05T08:17:14;2.08;;;1.80;;
41219;SDS011;26951;47.338;9.196;2022-12-05T08:19:58;2.47;;;1.98;;
41219;SDS011;26951;47.338;9.196;2022-12-05T08:22:43;1.98;;;1.67;;
41219;SDS011;26951;47.338;9.196;2022-12-05T08:25:27;2.15;;;1.92;;
41219;SDS011;26951;47.338;9.196;2022-12-05T08:28:11;1.85;;;1.65;;
41219;SDS011;26951;47.338;9.196;2022-12-05T08:30:55;3.08;;;1.83;;
41219;SDS011;26951;47.338;9.196;2022-12-05T08:33:44;2.42;;;1.83;;
41219;SDS011;26951;47.338;9.196;2022-12-05T08:36:29;2.25;;;1.58;;
41219;SDS011;26951;47.338;9.196;2022-12-05T08:39:14;1.98;;;1.73;;
41219;SDS011;26951;47.338;9.196;2022-12-05T08:42:00;2.35;;;1.83;;
41219;SDS011;26951;47.338;9.196;2022-12-05T08:44:44;2.72;;;2.00;;
41219;SDS011;26951;47.338;9.196;2022-12-05T08:47:28;3.15;;;2.42;;
41219;SDS011;26951;47.338;9.196;2022-12-05T08:50:12;2.03;;;1.85;;
41219;SDS011;26951;47.338;9.196;2022-12-05T08:52:56;2.10;;;1.70;;
41219;SDS011;26951;47.338;9.196;2022-12-05T08:55:41;2.40;;;1.85;;
41219;SDS011;26951;47.338;9.196;2022-12-05T08:58:25;1.80;;;1.70;;
41219;SDS011;26951;47.338;9.196;2022-12-05T09:01:11;2.78;;;2.10;;
41219;SDS011;26951;47.338;9.196;2022-12-05T09:03:59;2.80;;;2.10;;
41219;SDS011;26951;47.338;9.196;2022-12-05T09:09:29;3.65;;;1.98;;
41219;SDS011;26951;47.338;9.196;2022-12-05T09:12:15;3.63;;;2.13;;
41219;SDS011;26951;47.338;9.196;2022-12-05T09:14:59;3.75;;;2.63;;
41219;SDS011;26951;47.338;9.196;2022-12-05T09:17:43;3.88;;;2.92;;
41219;SDS011;26951;47.338;9.196;2022-12-05T09:20:28;3.60;;;3.08;;
41219;SDS011;26951;47.338;9.196;2022-12-05T09:23:12;4.15;;;3.28;;
41219;SDS011;26951;47.338;9.196;2022-12-05T09:25:56;2.20;;;1.98;;
41219;SDS011;26951;47.338;9.196;2022-12-05T09:28:44;1.88;;;1.77;;
41219;SDS011;26951;47.338;9.196;2022-12-05T09:31:28;2.22;;;1.80;;
41219;SDS011;26951;47.338;9.196;2022-12-05T09:34:13;2.10;;;1.90;;
41219;SDS011;26951;47.338;9.196;2022-12-05T09:36:58;2.25;;;1.95;;
41219;SDS011;26951;47.338;9.196;2022-12-05T09:39:43;1.83;;;1.60;;
41219;SDS011;26951;47.338;9.196;2022-12-05T09:42:46;1.77;;;1.60;;
41219;SDS011;26951;47.338;9.196;2022-12-05T09:45:49;1.65;;;1.55;;
41219;SDS011;26951;47.338;9.196;2022-12-05T09:48:39;1.52;;;1.40;;
41219;SDS011;26951;47.338;9.196;2022-12-05T09:51:24;2.50;;;1.60;;
41219;SDS011;26951;47.338;9.196;2022-12-05T09:54:09;2.03;;;1.63;;
41219;SDS011;26951;47.338;9.196;2022-12-05T09:56:55;1.70;;;1.55;;
41219;SDS011;26951;47.338;9.196;2022-12-05T09:59:40;6.97;;;2.00;;
41219;SDS011;26951;47.338;9.196;2022-12-05T10:02:26;2.55;;;1.98;;
41219;SDS011;26951;47.338;9.196;2022-12-05T10:05:18;2.47;;;1.75;;
41219;SDS011;26951;47.338;9.196;2022-12-05T10:08:13;1.58;;;1.48;;
41219;SDS011;26951;47.338;9.196;2022-12-05T10:11:04;2.03;;;1.58;;
41219;SDS011;26951;47.338;9.196;2022-12-05T10:13:59;2.78;;;1.50;;
41219;SDS011;26951;47.338;9.196;2022-12-05T10:16:55;2.10;;;1.40;;
41219;SDS011;26951;47.338;9.196;2022-12-05T10:19:44;1.63;;;1.23;;
41219;SDS011;26951;47.338;9.196;2022-12-05T10:22:38;2.75;;;1.20;;
41219;SDS011;26951;47.338;9.196;2022-12-05T10:25:32;1.20;;;1.10;;
41219;SDS011;26951;47.338;9.196;2022-12-05T10:28:21;1.30;;;1.20;;
41219;SDS011;26951;47.338;9.196;2022-12-05T10:31:13;1.45;;;1.33;;
41219;SDS011;26951;47.338;9.196;2022-12-05T10:37:20;1.55;;;1.23;;
41219;SDS011;26951;47.338;9.196;2022-12-05T10:40:10;1.70;;;1.40;;
41219;SDS011;26951;47.338;9.196;2022-12-05T10:42:55;1.48;;;1.20;;
41219;SDS011;26951;47.338;9.196;2022-12-05T10:45:41;2.23;;;2.00;;
41219;SDS011;26951;47.338;9.196;2022-12-05T10:48:27;1.98;;;1.10;;
41219;SDS011;26951;47.338;9.196;2022-12-05T10:51:15;1.50;;;1.33;;
41219;SDS011;26951;47.338;9.196;2022-12-05T10:54:20;1.40;;;1.25;;
41219;SDS011;26951;47.338;9.196;2022-12-05T10:57:19;1.83;;;1.73;;
41219;SDS011;26951;47.338;9.196;2022-12-05T11:02:57;3.15;;;1.40;;
41219;SDS011;26951;47.338;9.196;2022-12-05T11:05:48;2.15;;;1.35;;
41219;SDS011;26951;47.338;9.196;2022-12-05T11:08:32;2.72;;;2.15;;
41219;SDS011;26951;47.338;9.196;2022-12-05T11:11:18;3.22;;;2.92;;
41219;SDS011;26951;47.338;9.196;2022-12-05T11:14:06;4.35;;;3.15;;
41219;SDS011;26951;47.338;9.196;2022-12-05T11:17:08;2.50;;;2.30;;
41219;SDS011;26951;47.338;9.196;2022-12-05T11:23:04;2.08;;;1.85;;
41219;SDS011;26951;47.338;9.196;2022-12-05T11:26:16;2.10;;;1.70;;
41219;SDS011;26951;47.338;9.196;2022-12-05T11:29:28;3.78;;;2.35;;
41219;SDS011;26951;47.338;9.196;2022-12-05T11:32:18;2.70;;;2.10;;
41219;SDS011;26951;47.338;9.196;2022-12-05T11:37:59;2.30;;;1.80;;
41219;SDS011;26951;47.338;9.196;2022-12-05T11:40:52;2.30;;;2.10;;
41219;SDS011;26951;47.338;9.196;2022-12-05T11:44:02;2.25;;;1.80;;
41219;SDS011;26951;47.338;9.196;2022-12-05T11:47:10;2.03;;;1.75;;
41219;SDS011;26951;47.338;9.196;2022-12-05T11:50:23;2.65;;;2.10;;
41219;SDS011;26951;47.338;9.196;2022-12-05T11:53:28;2.03;;;1.67;;
41219;SDS011;26951;47.338;9.196;2022-12-05T11:56:35;2.20;;;1.80;;
41219;SDS011;26951;47.338;9.196;2022-12-05T12:03:00;2.05;;;1.85;;
41219;SDS011;26951;47.338;9.196;2022-12-05T12:10:09;2.15;;;1.95;;
41219;SDS011;26951;47.338;9.196;2022-12-05T12:16:20;3.50;;;2.75;;
41219;SDS011;26951;47.338;9.196;2022-12-05T12:28:38;2.70;;;2.03;;
41219;SDS011;26951;47.338;9.196;2022-12-05T12:34:44;2.88;;;2.30;;
41219;SDS011;26951;47.338;9.196;2022-12-05T12:47:03;2.80;;;2.13;;
41219;SDS011;26951;47.338;9.196;2022-12-05T12:56:20;2.83;;;2.50;;
41219;SDS011;26951;47.338;9.196;2022-12-05T13:02:40;3.20;;;2.50;;
41219;SDS011;26951;47.338;9.196;2022-12-05T13:05:31;2.58;;;2.35;;
41219;SDS011;26951;47.338;9.196;2022-12-05T13:08:31;3.13;;;2.70;;
41219;SDS011;26951;47.338;9.196;2022-12-05T13:11:21;3.25;;;2.63;;
41219;SDS011;26951;47.338;9.196;2022-12-05T13:14:11;4.45;;;2.60;;
41219;SDS011;26951;47.338;9.196;2022-12-05T13:16:58;3.58;;;2.50;;
41219;SDS011;26951;47.338;9.196;2022-12-05T13:19:45;4.88;;;2.60;;
41219;SDS011;26951;47.338;9.196;2022-12-05T13:22:32;3.15;;;2.45;;
41219;SDS011;26951;47.338;9.196;2022-12-05T13:25:16;2.92;;;2.28;;
41219;SDS011;26951;47.338;9.196;2022-12-05T13:28:04;5.00;;;2.45;;
41219;SDS011;26951;47.338;9.196;2022-12-05T13:30:59;2.35;;;2.05;;
41219;SDS011;26951;47.338;9.196;2022-12-05T13:33:46;3.05;;;2.63;;
41219;SDS011;26951;47.338;9.196;2022-12-05T13:36:38;2.83;;;2.35;;
41219;SDS011;26951;47.338;9.196;2022-12-05T13:39:52;2.97;;;2.20;;
41219;SDS011;26951;47.338;9.196;2022-12-05T13:43:01;3.33;;;2.58;;
41219;SDS011;26951;47.338;9.196;2022-12-05T13:45:54;2.80;;;2.17;;
41219;SDS011;26951;47.338;9.196;2022-12-05T13:48:43;3.15;;;2.20;;
41219;SDS011;26951;47.338;9.196;2022-12-05T13:51:38;2.55;;;2.22;;
41219;SDS011;26951;47.338;9.196;2022-12-05T13:54:25;2.30;;;2.03;;
41219;SDS011;26951;47.338;9.196;2022-12-05T14:00:22;3.00;;;2.33;;
41219;SDS011;26951;47.338;9.196;2022-12-05T14:03:56;2.78;;;2.50;;
41219;SDS011;26951;47.338;9.196;2022-12-05T14:09:26;2.67;;;2.30;;
41219;SDS011;26951;47.338;9.196;2022-12-05T14:20:59;3.25;;;2.95;;
41219;SDS011;26951;47.338;9.196;2022-12-05T14:27:16;2.50;;;2.28;;
41219;SDS011;26951;47.338;9.196;2022-12-05T14:30:31;2.65;;;2.35;;
41219;SDS011;26951;47.338;9.196;2022-12-05T14:33:28;3.72;;;2.70;;
41219;SDS011;26951;47.338;9.196;2022-12-05T14:36:16;2.63;;;2.30;;
41219;SDS011;26951;47.338;9.196;2022-12-05T14:39:18;3.78;;;2.95;;
41219;SDS011;26951;47.338;9.196;2022-12-05T14:42:25;3.33;;;2.40;;
41219;SDS011;26951;47.338;9.196;2022-12-05T14:50:59;3.08;;;2.50;;
41219;SDS011;26951;47.338;9.196;2022-12-05T14:53:45;3.10;;;2.80;;
41219;SDS011;26951;47.338;9.196;2022-12-05T14:56:31;2.70;;;2.50;;
41219;SDS011;26951;47.338;9.196;2022-12-05T14:59:23;3.70;;;2.78;;
41219;SDS011;26951;47.338;9.196;2022-12-05T15:02:21;2.70;;;2.10;;
41219;SDS011;26951;47.338;9.196;2022-12-05T15:08:08;2.47;;;2.28;;
41219;SDS011;26951;47.338;9.196;2022-12-05T15:10:57;3.15;;;2.85;;
41219;SDS011;26951;47.338;9.196;2022-12-05T15:13:42;2.75;;;2.47;;
41219;SDS011;26951;47.338;9.196;2022-12-05T15:16:27;2.35;;;2.10;;
41219;SDS011;26951;47.338;9.196;2022-12-05T15:19:26;3.20;;;2.45;;
41219;SDS011;26951;47.338;9.196;2022-12-05T15:22:14;2.85;;;2.42;;
41219;SDS011;26951;47.338;9.196;2022-12-05T15:25:21;3.40;;;2.70;;
41219;SDS011;26951;47.338;9.196;2022-12-05T15:28:16;3.85;;;2.90;;
41219;SDS011;26951;47.338;9.196;2022-12-05T15:31:02;3.00;;;2.58;;
41219;SDS011;26951;47.338;9.196;2022-12-05T15:33:50;2.95;;;2.53;;
41219;SDS011;26951;47.338;9.196;2022-12-05T15:36:39;3.42;;;2.75;;
41219;SDS011;26951;47.338;9.196;2022-12-05T15:39:27;3.25;;;2.67;;
41219;SDS011;26951;47.338;9.196;2022-12-05T15:42:12;3.40;;;2.83;;
41219;SDS011;26951;47.338;9.196;2022-12-05T15:45:13;4.45;;;3.08;;
41219;SDS011;26951;47.338;9.196;2022-12-05T15:50:48;4.43;;;3.58;;
41219;SDS011;26951;47.338;9.196;2022-12-05T15:53:43;3.63;;;2.80;;
41219;SDS011;26951;47.338;9.196;2022-12-05T15:56:37;3.28;;;2.90;;
41219;SDS011;26951;47.338;9.196;2022-12-05T15:59:39;3.70;;;3.10;;
41219;SDS011;26951;47.338;9.196;2022-12-05T16:02:40;4.15;;;3.20;;
41219;SDS011;26951;47.338;9.196;2022-12-05T16:05:37;3.70;;;3.20;;
41219;SDS011;26951;47.338;9.196;2022-12-05T16:08:24;4.78;;;2.92;;
41219;SDS011;26951;47.338;9.196;2022-12-05T16:11:12;3.78;;;2.92;;
41219;SDS011;26951;47.338;9.196;2022-12-05T16:13:58;3.75;;;3.17;;
41219;SDS011;26951;47.338;9.196;2022-12-05T16:16:45;3.50;;;3.20;;
41219;SDS011;26951;47.338;9.196;2022-12-05T16:19:29;4.13;;;3.13;;
41219;SDS011;26951;47.338;9.196;2022-12-05T16:22:23;3.72;;;2.90;;
41219;SDS011;26951;47.338;9.196;2022-12-05T16:25:12;5.43;;;3.55;;
41219;SDS011;26951;47.338;9.196;2022-12-05T16:30:58;3.72;;;3.15;;
41219;SDS011;26951;47.338;9.196;2022-12-05T16:33:44;3.85;;;3.13;;
41219;SDS011;26951;47.338;9.196;2022-12-05T16:36:30;4.60;;;3.72;;
41219;SDS011;26951;47.338;9.196;2022-12-05T16:39:15;6.60;;;3.88;;
41219;SDS011;26951;47.338;9.196;2022-12-05T16:42:00;5.18;;;3.70;;
41219;SDS011;26951;47.338;9.196;2022-12-05T16:50:37;3.78;;;3.20;;
41219;SDS011;26951;47.338;9.196;2022-12-05T16:53:26;7.00;;;4.85;;
41219;SDS011;26951;47.338;9.196;2022-12-05T16:56:15;4.32;;;3.33;;
41219;SDS011;26951;47.338;9.196;2022-12-05T16:59:12;4.72;;;3.45;;
41219;SDS011;26951;47.338;9.196;2022-12-05T17:02:08;4.95;;;3.58;;
41219;SDS011;26951;47.338;9.196;2022-12-05T17:04:58;3.85;;;3.38;;
41219;SDS011;26951;47.338;9.196;2022-12-05T17:07:45;4.55;;;3.70;;
41219;SDS011;26951;47.338;9.196;2022-12-05T17:10:29;5.93;;;3.75;;
41219;SDS011;26951;47.338;9.196;2022-12-05T17:13:14;4.53;;;3.40;;
41219;SDS011;26951;47.338;9.196;2022-12-05T17:18:43;5.88;;;3.67;;
41219;SDS011;26951;47.338;9.196;2022-12-05T17:21:31;5.05;;;4.07;;
41219;SDS011;26951;47.338;9.196;2022-12-05T17:24:16;5.38;;;3.78;;
41219;SDS011;26951;47.338;9.196;2022-12-05T17:27:01;5.70;;;3.92;;
41219;SDS011;26951;47.338;9.196;2022-12-05T17:29:45;5.03;;;4.07;;
41219;SDS011;26951;47.338;9.196;2022-12-05T17:32:29;6.40;;;3.70;;
41219;SDS011;26951;47.338;9.196;2022-12-05T17:35:14;6.43;;;3.83;;
41219;SDS011;26951;47.338;9.196;2022-12-05T17:37:59;16.48;;;8.25;;
41219;SDS011;26951;47.338;9.196;2022-12-05T17:40:43;78.57;;;46.88;;
41219;SDS011;26951;47.338;9.196;2022-12-05T17:43:27;55.25;;;35.42;;
41219;SDS011;26951;47.338;9.196;2022-12-05T17:46:13;23.52;;;14.43;;
41219;SDS011;26951;47.338;9.196;2022-12-05T17:49:00;11.90;;;8.77;;
41219;SDS011;26951;47.338;9.196;2022-12-05T17:51:44;10.55;;;6.30;;
41219;SDS011;26951;47.338;9.196;2022-12-05T17:54:29;8.43;;;5.63;;
41219;SDS011;26951;47.338;9.196;2022-12-05T17:57:13;10.18;;;6.53;;
41219;SDS011;26951;47.338;9.196;2022-12-05T17:59:57;14.20;;;7.10;;
41219;SDS011;26951;47.338;9.196;2022-12-05T18:02:42;11.38;;;6.32;;
41219;SDS011;26951;47.338;9.196;2022-12-05T18:05:26;12.18;;;6.55;;
41219;SDS011;26951;47.338;9.196;2022-12-05T18:08:10;12.45;;;7.70;;
41219;SDS011;26951;47.338;9.196;2022-12-05T18:10:55;11.65;;;8.13;;
41219;SDS011;26951;47.338;9.196;2022-12-05T18:13:41;10.32;;;7.07;;
41219;SDS011;26951;47.338;9.196;2022-12-05T18:16:25;6.88;;;4.70;;
41219;SDS011;26951;47.338;9.196;2022-12-05T18:19:09;6.53;;;4.93;;
41219;SDS011;26951;47.338;9.196;2022-12-05T18:21:53;6.68;;;5.10;;
41219;SDS011;26951;47.338;9.196;2022-12-05T18:24:37;5.40;;;4.15;;
41219;SDS011;26951;47.338;9.196;2022-12-05T18:27:22;3.67;;;2.90;;
41219;SDS011;26951;47.338;9.196;2022-12-05T18:30:06;4.95;;;3.80;;
41219;SDS011;26951;47.338;9.196;2022-12-05T18:32:51;5.25;;;3.72;;
41219;SDS011;26951;47.338;9.196;2022-12-05T18:35:38;6.80;;;4.95;;
41219;SDS011;26951;47.338;9.196;2022-12-05T18:38:23;5.30;;;3.97;;
41219;SDS011;26951;47.338;9.196;2022-12-05T18:41:07;6.55;;;3.70;;
41219;SDS011;26951;47.338;9.196;2022-12-05T18:43:52;7.97;;;5.07;;
41219;SDS011;26951;47.338;9.196;2022-12-05T18:46:36;4.82;;;3.72;;
41219;SDS011;26951;47.338;9.196;2022-12-05T18:49:21;4.20;;;3.53;;
41219;SDS011;26951;47.338;9.196;2022-12-05T18:52:05;4.57;;;4.13;;
41219;SDS011;26951;47.338;9.196;2022-12-05T18:54:50;5.57;;;4.15;;
41219;SDS011;26951;47.338;9.196;2022-12-05T18:57:34;4.63;;;3.92;;
41219;SDS011;26951;47.338;9.196;2022-12-05T19:00:19;4.50;;;3.90;;
41219;SDS011;26951;47.338;9.196;2022-12-05T19:03:03;4.60;;;3.72;;
41219;SDS011;26951;47.338;9.196;2022-12-05T19:05:47;6.35;;;4.35;;
41219;SDS011;26951;47.338;9.196;2022-12-05T19:08:31;5.03;;;3.78;;
41219;SDS011;26951;47.338;9.196;2022-12-05T19:11:16;6.10;;;4.22;;
41219;SDS011;26951;47.338;9.196;2022-12-05T19:14:02;5.28;;;3.60;;
41219;SDS011;26951;47.338;9.196;2022-12-05T19:16:48;5.25;;;4.40;;
41219;SDS011;26951;47.338;9.196;2022-12-05T19:19:33;5.05;;;4.05;;